East Milton, Massachusetts
Current Conditions -  °F | °C
As of 7:28 PM on Wednesday 26 Nov 2014 (Local Time) from KOWD Reporting Station
Light Rain Light Rain  
Wind Chill: 28°   Ceiling: 900
Heat Index: 37°   Visibility: 5mi
Dew Point: 34°   Wind: 16mph
Humidity: 89%   Direction: 20°NNE
Pressure: 29.73"   Gusts: 29mph
Location:  42.2°N, 71.11°W
Report Text: KOWD 270028Z 02014G25KT 5SM -RA BR OVC009 03/01 A2973 RMK AO2 CIG 007V013 P0007 T00280011 $
Loading
Personal Weather Stations






























Interactive Weather Map New forecast layout! Learn more

10-Day Weather Forecast

Advertisements
Track Severe Weather on mobile